Time;durP1;ratioP1;P1;durP2;ratioP2;P2;SDS_P1;SDS_P2;PMS_P1;PMS_P2;Temp;Humidity;BMP_temperature;BMP_pressure;BME280_temperature;BME280_humidity;BME280_pressure;Samples;Min_cycle;Max_cycle;Signal;HPM_P1;HPM_P2
2021/08/19 00:00:49;;;;;;;;;;;;;;;17.14;90.43;101383.03;5115258;28;20020;-35
2021/08/19 00:03:14;;;;;;;19.30;14.13;;;;;;;17.08;91.97;101382.19;5114691;28;19951;-35
2021/08/19 00:05:40;;;;;;;18.73;14.18;;;;;;;17.07;92.19;101375.03;5114978;27;20265;-35
2021/08/19 00:08:05;;;;;;;;;;;;;;;17.13;90.50;101382.22;5115234;28;20024;-35
2021/08/19 00:10:31;;;;;;;19.33;13.82;;;;;;;17.04;92.21;101375.59;5115169;28;19914;-36
2021/08/19 00:12:58;;;;;;;21.15;13.80;;;;;;;17.04;92.51;101372.03;5114606;28;20023;-35
2021/08/19 00:15:23;;;;;;;15.40;12.80;;;;;;;16.98;92.75;101366.53;5113696;28;20028;-36
2021/08/19 00:17:49;;;;;;;20.58;13.93;;;;;;;16.98;93.05;101372.00;5114819;28;20031;-35
2021/08/19 00:20:14;;;;;;;;;;;;;;;17.05;91.28;101365.47;5115500;28;20023;-35
2021/08/19 00:22:39;;;;;;;21.23;13.43;;;;;;;16.95;92.92;101368.94;5114377;28;20378;-35
2021/08/19 00:25:06;;;;;;;19.92;14.45;;;;;;;16.86;93.38;101354.13;5114374;28;20635;-35
2021/08/19 00:27:31;;;;;;;19.90;13.98;;;;;;;16.91;93.76;101370.56;5115370;28;20061;-35
2021/08/19 00:29:57;;;;;;;24.58;14.52;;;;;;;16.91;93.45;101367.81;5114332;28;20028;-35
2021/08/19 00:32:23;;;;;;;23.00;15.43;;;;;;;16.92;93.43;101366.72;5114159;28;20056;-35
2021/08/19 00:34:48;;;;;;;;;;;;;;;16.97;91.95;101372.22;5115440;27;20051;-35
2021/08/19 00:37:13;;;;;;;19.83;13.70;;;;;;;16.85;93.68;101358.75;5114575;28;19908;-35
2021/08/19 00:39:39;;;;;;;22.17;14.38;;;;;;;16.87;94.24;101366.69;5113995;28;20273;-35
2021/08/19 00:42:05;;;;;;;;;;;;;;;16.94;92.57;101359.94;5114848;28;20036;-36
2021/08/19 00:44:30;;;;;;;24.10;14.25;;;;;;;16.86;94.31;101359.59;5114112;28;19907;-35
2021/08/19 00:46:56;;;;;;;16.90;13.40;;;;;;;16.86;94.10;101354.13;5114450;28;20028;-35
2021/08/19 00:49:21;;;;;;;16.63;14.35;;;;;;;16.84;94.48;101353.56;5113978;28;20046;-35
2021/08/19 00:51:51;;;;;;;;;;;;;;;16.91;92.78;101345.97;5114353;28;20034;-35
2021/08/19 00:54:26;;;;;;;18.52;14.10;;;;;;;16.77;94.51;101344.75;5113686;28;19908;-35
2021/08/19 00:56:56;;;;;;;19.42;14.85;;;;;;;16.83;94.69;101351.91;5114141;28;20363;-35
2021/08/19 00:59:24;;;;;;;24.27;16.17;;;;;;;16.82;94.54;101350.25;5113867;28;20057;-35
2021/08/19 01:01:53;;;;;;;20.58;16.48;;;;;;;16.81;94.61;101356.81;5113624;28;20024;-35
2021/08/19 01:04:19;;;;;;;22.55;16.65;;;;;;;16.79;94.76;101353.50;5114243;28;20020;-35
2021/08/19 01:06:44;;;;;;;25.33;18.00;;;;;;;16.78;94.92;101358.13;5113897;28;20354;-35
2021/08/19 01:09:09;;;;;;;;;;;;;;;16.86;93.13;101354.13;5113857;28;20050;-35
2021/08/19 01:11:39;;;;;;;25.50;19.13;;;;;;;16.76;94.26;101351.31;5112610;28;19907;-35
2021/08/19 01:14:05;;;;;;;23.35;18.55;;;;;;;16.73;94.39;101348.00;5113329;28;20043;-35
2021/08/19 01:16:31;;;;;;;23.58;18.83;;;;;;;16.73;94.70;101338.97;5114050;28;20020;-35
2021/08/19 01:18:57;;;;;;;26.40;19.75;;;;;;;16.74;94.33;101354.31;5113558;28;20531;-35
2021/08/19 01:21:22;;;;;;;22.10;19.25;;;;;;;16.68;94.16;101347.09;5114198;28;20033;-35
2021/08/19 01:23:47;;;;;;;;;;;;;;;16.80;93.71;101358.72;5113634;28;20055;-35
2021/08/19 01:26:16;;;;;;;23.65;19.77;;;;;;;16.72;94.24;101360.00;5113425;28;20337;-35
2021/08/19 01:28:42;;;;;;;30.63;19.70;;;;;;;16.71;94.61;101349.31;5113813;28;20019;-35
2021/08/19 01:31:13;;;;;;;25.23;19.25;;;;;;;16.68;94.16;101347.91;5114254;28;20421;-35
2021/08/19 01:33:42;;;;;;;31.05;19.35;;;;;;;16.69;94.12;101343.31;5113786;28;20047;-36
2021/08/19 01:36:07;;;;;;;26.23;20.00;;;;;;;16.65;94.51;101348.47;5114124;28;20030;-35
2021/08/19 01:38:34;;;;;;;26.63;19.52;;;;;;;16.64;94.31;101344.09;5113209;28;20027;-35
2021/08/19 01:41:02;;;;;;;30.17;20.00;;;;;;;16.66;94.41;101349.28;5113471;28;20464;-35
2021/08/19 01:43:28;;;;;;;27.42;20.58;;;;;;;16.58;94.08;101336.09;5113417;28;20024;-35
2021/08/19 01:46:11;;;;;;;24.92;19.73;;;;;;;16.66;94.29;101355.56;5113355;28;20034;-35
2021/08/19 01:48:42;;;;;;;27.58;19.27;;;;;;;16.66;94.12;101347.38;5113248;28;20024;-35
2021/08/19 01:51:09;;;;;;;24.13;19.27;;;;;;;16.65;94.30;101348.47;5113363;28;20467;-35
2021/08/19 01:53:35;;;;;;;29.77;20.35;;;;;;;16.61;94.53;101343.78;5112991;28;20022;-35
2021/08/19 01:56:00;;;;;;;23.10;19.20;;;;;;;16.69;94.15;101343.31;5113564;28;20062;-35
2021/08/19 01:58:26;;;;;;;;;;;;;;;16.75;93.16;101350.47;5116370;28;20304;-35
2021/08/19 02:00:52;;;;;;;22.67;18.88;;;;;;;16.69;94.20;101346.88;5117217;28;19903;-35
2021/08/19 02:03:17;;;;;;;;;;;;;;;16.75;92.95;101347.75;5117734;28;20019;-35
2021/08/19 02:05:43;;;;;;;26.92;18.80;;;;;;;16.67;94.08;101340.81;5117330;28;19910;-35
2021/08/19 02:08:09;;;;;;;29.38;20.00;;;;;;;16.68;93.84;101347.91;5117206;28;20024;-35
2021/08/19 02:10:36;;;;;;;30.42;21.25;;;;;;;16.65;94.52;101347.63;5117435;28;20055;-35
2021/08/19 02:13:04;;;;;;;29.73;20.45;;;;;;;16.55;94.48;101331.97;5115718;28;20036;-35
2021/08/19 02:15:29;;;;;;;30.25;21.42;;;;;;;16.64;94.67;101346.81;5116871;28;20027;-35
2021/08/19 02:17:55;;;;;;;31.83;21.23;;;;;;;16.64;94.46;101346.81;5117286;28;20046;-35
2021/08/19 02:20:20;;;;;;;27.83;20.77;;;;;;;16.65;93.91;101353.09;5117321;28;20359;-35
2021/08/19 02:22:48;;;;;;;;;;;;;;;16.69;93.35;101343.31;5117456;28;20031;-35
2021/08/19 02:25:14;;;;;;;29.13;19.67;;;;;;;16.60;94.04;101351.16;5116948;28;20305;-36
2021/08/19 02:27:40;;;;;;;27.58;20.92;;;;;;;16.57;94.07;101346.19;5117120;28;20030;-35
2021/08/19 02:30:06;;;;;;;28.40;20.30;;;;;;;16.59;94.28;101338.59;5116807;28;20023;-35
2021/08/19 02:32:31;;;;;;;;;;;;;;;16.67;93.31;101338.09;5116978;28;20027;-35
2021/08/19 02:34:57;;;;;;;26.80;20.40;;;;;;;16.58;94.08;101331.44;5115384;28;19951;-35
2021/08/19 02:37:23;;;;;;;28.63;21.42;;;;;;;16.59;93.90;101333.13;5117149;28;20272;-35
2021/08/19 02:39:48;;;;;;;33.53;23.13;;;;;;;16.47;94.30;101316.06;5116431;28;20376;-35
2021/08/19 02:42:13;;;;;;;29.30;22.98;;;;;;;16.57;93.82;101332.53;5116842;27;20250;-35
2021/08/19 02:44:38;;;;;;;33.13;25.10;;;;;;;16.48;93.39;101314.97;5116517;28;20027;-36
2021/08/19 02:47:06;;;;;;;;;;;;;;;16.61;93.17;101328.22;5117188;28;20162;-36
2021/08/19 02:49:31;;;;;;;32.50;24.00;;;;;;;16.53;93.83;101331.41;5117155;28;19960;-35
2021/08/19 02:51:56;;;;;;;32.20;24.08;;;;;;;16.56;94.01;101328.16;5117017;28;20023;-35
2021/08/19 02:54:22;;;;;;;;;;;;;;;16.62;92.94;101334.50;5117174;28;20023;-36
2021/08/19 02:56:47;;;;;;;36.33;23.70;;;;;;;16.55;93.62;101322.97;5116920;28;19939;-35
2021/08/19 02:59:12;;;;;;;;;;;;;;;16.61;92.83;101324.66;5116726;28;20034;-36
2021/08/19 03:01:37;;;;;;;31.67;25.52;;;;;;;16.56;93.40;101327.34;5116794;28;20389;-35
2021/08/19 03:04:03;;;;;;;33.45;25.08;;;;;;;16.53;93.47;101325.13;5116406;28;20016;-35
2021/08/19 03:06:28;;;;;;;;;;;;;;;16.60;92.55;101326.56;5116669;28;20027;-35
2021/08/19 03:08:53;;;;;;;30.53;23.37;;;;;;;16.55;93.32;101326.53;5114723;28;19968;-35
2021/08/19 03:11:19;;;;;;;29.43;24.10;;;;;;;16.55;93.35;101325.69;5116397;28;20254;-35
2021/08/19 03:13:44;;;;;;;33.15;25.50;;;;;;;16.54;93.14;101327.59;5115690;28;20334;-35
2021/08/19 03:16:09;;;;;;;;;;;;;;;16.59;92.70;101322.19;5116465;28;20030;-35
2021/08/19 03:18:35;;;;;;;30.45;24.52;;;;;;;16.53;93.05;101325.13;5115876;28;19903;-35
2021/08/19 03:21:02;;;;;;;37.00;26.65;;;;;;;16.50;93.02;101318.28;5116538;28;20039;-35
2021/08/19 03:23:28;;;;;;;33.88;26.33;;;;;;;16.40;93.22;101308.09;5115791;28;20081;-35
2021/08/19 03:25:54;;;;;;;36.13;25.03;;;;;;;16.30;93.51;101294.34;5115753;28;20035;-35
2021/08/19 03:28:22;;;;;;;32.28;25.88;;;;;;;16.31;93.85;101301.47;5115313;28;20261;-35
2021/08/19 03:30:47;;;;;;;33.83;24.67;;;;;;;16.39;93.82;101319.25;5115989;28;20050;-35
2021/08/19 03:33:13;;;;;;;35.70;25.70;;;;;;;16.30;93.21;101307.16;5115805;28;20039;-35
2021/08/19 03:35:38;;;;;;;;;;;;;;;16.46;92.59;101317.97;5116165;28;20024;-35
2021/08/19 03:38:05;;;;;;;33.90;25.50;;;;;;;16.34;92.97;101300.09;5114390;28;19914;-35
2021/08/19 03:40:31;;;;;;;35.15;26.42;;;;;;;16.28;92.99;101301.13;5115789;27;20031;-35
2021/08/19 03:42:56;;;;;;;33.67;24.92;;;;;;;16.38;93.32;101321.16;5115416;28;20398;-35
2021/08/19 03:45:21;;;;;;;;;;;;;;;16.43;92.74;101310.28;5115962;28;20024;-35
2021/08/19 03:47:46;;;;;;;32.35;24.20;;;;;;;16.21;93.27;101294.00;5114047;28;19907;-35
2021/08/19 03:50:12;;;;;;;30.10;23.93;;;;;;;16.33;93.88;101310.19;5115484;28;20412;-35
2021/08/19 03:52:38;;;;;;;;;;;;;;;16.40;93.04;101315.47;5114468;28;20077;-35
2021/08/19 03:55:04;;;;;;;31.95;23.92;;;;;;;16.33;93.44;101310.19;5115942;28;19990;-35
2021/08/19 03:57:30;;;;;;;35.83;24.58;;;;;;;16.25;93.27;101302.50;5115764;28;20016;-35
2021/08/19 03:59:55;;;;;;;32.17;23.80;;;;;;;16.32;93.22;101318.66;5115264;28;20126;-35
2021/08/19 04:02:20;;;;;;;;;;;;;;;16.36;92.80;101315.16;5116392;28;20436;-35
2021/08/19 04:04:46;;;;;;;36.47;24.07;;;;;;;16.21;93.20;101307.63;5114896;28;19904;-35
2021/08/19 04:07:11;;;;;;;36.97;23.30;;;;;;;16.32;93.08;101318.66;5114882;27;20834;-36
2021/08/19 04:09:37;;;;;;;28.85;24.27;;;;;;;16.27;92.88;101318.59;5114825;28;20355;-35
2021/08/19 04:12:02;;;;;;;30.10;24.20;;;;;;;16.31;93.58;101330.66;5114980;28;20102;-36
2021/08/19 04:14:28;;;;;;;;;;;;;;;16.38;92.63;101329.34;5115289;28;20015;-35
2021/08/19 04:16:53;;;;;;;28.33;22.87;;;;;;;16.31;93.44;101330.66;5115316;28;20332;-35
2021/08/19 04:19:18;;;;;;;29.23;25.17;;;;;;;16.31;93.50;101330.66;5114562;28;20276;-35
2021/08/19 04:21:44;;;;;;;37.22;24.63;;;;;;;16.30;93.14;101326.25;5114329;28;20722;-35
2021/08/19 04:24:09;;;;;;;;;;;;;;;16.37;92.55;101335.06;5115717;28;20020;-35
2021/08/19 04:26:34;;;;;;;30.57;23.23;;;;;;;16.32;93.04;101329.56;5114890;28;19910;-35
2021/08/19 04:28:59;;;;;;;;;;;;;;;16.39;92.18;101324.72;5114559;28;20039;-35
2021/08/19 04:31:25;;;;;;;33.23;23.53;;;;;;;16.33;93.50;101323.84;5114685;28;19908;-35
2021/08/19 04:33:50;;;;;;;34.67;24.77;;;;;;;16.31;93.22;101322.47;5114294;28;20291;-35
2021/08/19 04:36:16;;;;;;;32.65;24.38;;;;;;;16.20;93.35;101310.59;5114305;27;20317;-35
2021/08/19 04:38:42;;;;;;;32.27;23.97;;;;;;;16.29;93.23;101319.97;5114126;28;20075;-35
2021/08/19 04:41:07;;;;;;;35.38;25.67;;;;;;;16.31;92.83;101319.75;5114601;28;20306;-36
2021/08/19 04:43:32;;;;;;;;;;;;;;;16.36;92.43;101320.59;5112874;28;20428;-35
2021/08/19 04:45:58;;;;;;;32.87;23.50;;;;;;;16.31;92.79;101327.94;5114102;28;19904;-35
2021/08/19 04:48:23;;;;;;;32.00;24.50;;;;;;;16.31;93.28;101327.94;5114376;28;20348;-35
2021/08/19 04:50:48;;;;;;;;;;;;;;;16.36;92.54;101323.34;5114845;28;20031;-36
2021/08/19 04:53:14;;;;;;;30.25;23.58;;;;;;;16.31;92.69;101331.47;5113990;28;20251;-35
2021/08/19 04:55:39;;;;;;;;;;;;;;;16.38;92.39;101329.34;5114652;28;20023;-35
2021/08/19 04:58:04;;;;;;;33.70;24.58;;;;;;;16.26;92.77;101319.69;5113906;28;20293;-35
2021/08/19 05:00:30;;;;;;;32.53;23.30;;;;;;;16.36;93.29;101330.72;5113818;28;20032;-35
2021/08/19 05:02:55;;;;;;;;;;;;;;;16.41;92.58;101330.75;5114281;28;20024;-35
2021/08/19 05:05:20;;;;;;;28.38;21.95;;;;;;;16.35;93.06;101331.78;5114402;28;20367;-35
2021/08/19 05:07:45;;;;;;;;;;;;;;;16.41;92.61;101337.03;5113895;28;20022;-35
2021/08/19 05:10:11;;;;;;;37.85;23.67;;;;;;;16.35;92.71;101329.88;5113628;28;20359;-35
2021/08/19 05:12:36;;;;;;;30.48;24.45;;;;;;;16.34;93.10;101321.94;5114249;28;20028;-35
2021/08/19 05:15:02;;;;;;;33.45;24.85;;;;;;;16.34;92.92;101327.38;5113918;28;20332;-35
2021/08/19 05:17:27;;;;;;;;;;;;;;;16.41;92.42;101330.75;5114112;28;20023;-35
2021/08/19 05:19:53;;;;;;;37.57;23.87;;;;;;;16.27;92.97;101315.88;5113626;28;20282;-35
2021/08/19 05:22:18;;;;;;;;;;;;;;;16.43;92.23;101323.13;5114256;28;20019;-35
2021/08/19 05:24:43;;;;;;;31.60;24.17;;;;;;;16.40;92.64;101331.84;5113531;28;19904;-35
2021/08/19 05:27:08;;;;;;;30.65;24.58;;;;;;;16.31;93.06;101317.00;5113971;28;20023;-35
2021/08/19 05:29:34;;;;;;;36.65;26.15;;;;;;;16.37;93.15;101329.63;5113324;28;20339;-35
2021/08/19 05:31:59;;;;;;;;;;;;;;;16.45;92.82;101338.16;5113846;28;20027;-35
2021/08/19 05:34:24;;;;;;;33.00;24.83;;;;;;;16.43;92.96;101342.22;5114663;28;20024;-35
2021/08/19 05:36:50;;;;;;;37.85;26.10;;;;;;;16.44;92.85;101339.22;5113694;28;20035;-35
2021/08/19 05:39:15;;;;;;;34.47;25.98;;;;;;;16.44;93.02;101338.41;5113865;28;20024;-35
2021/08/19 05:41:41;;;;;;;36.80;25.88;;;;;;;16.45;92.94;101342.81;5113930;28;20030;-35
2021/08/19 05:44:06;;;;;;;37.73;28.03;;;;;;;16.38;92.95;101334.00;5113573;28;20352;-35
2021/08/19 05:46:31;;;;;;;37.85;25.63;;;;;;;16.41;92.84;101347.13;5113257;28;20771;-35
2021/08/19 05:48:56;;;;;;;37.15;26.30;;;;;;;16.39;92.79;101339.19;5113361;28;20462;-35
2021/08/19 05:51:22;;;;;;;38.63;26.70;;;;;;;16.50;92.59;101342.03;5112107;28;20047;-35
2021/08/19 05:53:47;;;;;;;;;;;;;;;16.56;92.51;101360.94;5113889;28;20020;-35
2021/08/19 05:56:13;;;;;;;34.33;26.50;;;;;;;16.49;92.42;101352.09;5113644;28;20013;-37
2021/08/19 05:58:38;;;;;;;39.67;26.80;;;;;;;16.50;93.40;101356.50;5113526;28;20115;-35
2021/08/19 06:01:03;;;;;;;36.03;28.48;;;;;;;16.48;92.95;101354.00;5113622;28;20049;-35
2021/08/19 06:03:29;;;;;;;;;;;;;;;16.57;92.54;101357.09;5113589;28;20016;-35
2021/08/19 06:05:54;;;;;;;37.03;27.50;;;;;;;16.52;92.67;101359.78;5113083;28;19903;-35
2021/08/19 06:08:19;;;;;;;39.78;29.20;;;;;;;16.54;92.75;101356.78;5113149;28;20261;-35
2021/08/19 06:10:45;;;;;;;;;;;;;;;16.59;92.29;101359.56;5113827;28;20024;-35
2021/08/19 06:13:10;;;;;;;35.97;27.73;;;;;;;16.56;92.49;101360.94;5113058;28;19957;-35
2021/08/19 06:15:36;;;;;;;37.30;28.13;;;;;;;16.57;92.60;101359.84;5112320;28;20115;-35
2021/08/19 06:18:02;;;;;;;35.50;28.80;;;;;;;16.54;92.75;101352.16;5113285;28;20031;-35
2021/08/19 06:20:27;;;;;;;;;;;;;;;16.63;92.07;101361.53;5114430;28;20035;-35
2021/08/19 06:22:54;;;;;;;35.85;27.20;;;;;;;16.58;92.56;101364.22;5112896;28;20375;-35
2021/08/19 06:25:19;;;;;;;40.22;28.38;;;;;;;16.57;92.68;101357.09;5113668;28;20379;-35
2021/08/19 06:27:46;;;;;;;41.10;27.17;;;;;;;16.54;92.64;101360.34;5113400;28;20065;-35
2021/08/19 06:30:12;;;;;;;33.80;26.83;;;;;;;16.49;92.77;101354.84;5113078;28;20016;-35
2021/08/19 06:32:37;;;;;;;;;;;;;;;16.64;92.28;101373.28;5113056;28;20047;-35
2021/08/19 06:35:03;;;;;;;35.00;25.90;;;;;;;16.56;92.53;101371.84;5112837;28;19908;-35
2021/08/19 06:37:28;;;;;;;35.45;27.42;;;;;;;16.54;93.04;101363.06;5113403;28;20248;-35
2021/08/19 06:39:54;;;;;;;;;;;;;;;16.61;92.17;101365.63;5113402;28;20111;-35
2021/08/19 06:42:19;;;;;;;34.07;26.27;;;;;;;16.48;92.94;101359.47;5112762;28;19910;-35
2021/08/19 06:44:44;;;;;;;31.27;24.60;;;;;;;16.57;92.58;101368.03;5115716;28;20340;-35
2021/08/19 06:47:09;;;;;;;30.87;25.10;;;;;;;16.57;92.92;101365.28;5116950;28;20344;-35
2021/08/19 06:49:35;;;;;;;31.97;26.47;;;;;;;16.49;92.89;101357.56;5117338;28;20575;-35
2021/08/19 06:52:00;;;;;;;33.35;23.98;;;;;;;16.47;93.12;101359.75;5116594;28;20253;-35
2021/08/19 06:54:26;;;;;;;38.73;25.83;;;;;;;16.58;93.07;101375.13;5116286;28;20027;-35
2021/08/19 06:56:51;;;;;;;31.05;25.33;;;;;;;16.57;92.75;101370.75;5116893;28;20344;-35
2021/08/19 06:59:16;;;;;;;;;;;;;;;16.63;92.42;101367.00;5117324;28;20067;-35
2021/08/19 07:01:42;;;;;;;34.22;24.48;;;;;;;16.61;92.95;101369.16;5117146;28;19907;-35
2021/08/19 07:04:08;;;;;;;35.85;24.33;;;;;;;16.62;93.12;101376.25;5116631;28;20023;-35
2021/08/19 07:06:33;;;;;;;;;;;;;;;16.70;92.32;101373.06;5117103;28;20333;-35
2021/08/19 07:08:58;;;;;;;32.40;24.00;;;;;;;16.67;93.79;101375.50;5116264;28;19954;-35
2021/08/19 07:11:23;;;;;;;;;;;;;;;16.76;92.49;101370.44;5116693;28;20348;-35
2021/08/19 07:13:50;;;;;;;27.83;23.27;;;;;;;16.60;93.21;101367.53;5116522;28;19904;-35
2021/08/19 07:16:15;;;;;;;34.08;24.25;;;;;;;16.67;93.37;101381.78;5116187;28;20302;-35
2021/08/19 07:18:41;;;;;;;34.33;24.60;;;;;;;16.70;93.55;101380.44;5116424;28;20023;-35
2021/08/19 07:21:06;;;;;;;31.37;24.47;;;;;;;16.70;93.53;101373.06;5116190;28;20363;-35
2021/08/19 07:23:32;;;;;;;31.77;25.00;;;;;;;16.72;93.79;101376.38;5116331;28;20602;-35
2021/08/19 07:25:57;;;;;;;31.52;24.45;;;;;;;16.69;93.67;101382.34;5116510;28;20031;-35
2021/08/19 07:28:23;;;;;;;;;;;;;;;16.78;92.91;101374.53;5116319;28;20459;-35
2021/08/19 07:30:48;;;;;;;29.25;24.75;;;;;;;16.68;93.76;101375.22;5115688;28;20344;-35
2021/08/19 07:33:13;;;;;;;34.63;24.25;;;;;;;16.65;94.37;101381.22;5115316;27;20432;-35
2021/08/19 07:35:39;;;;;;;29.77;24.27;;;;;;;16.63;94.41;101382.53;5116672;28;20024;-35
2021/08/19 07:38:04;;;;;;;;;;;;;;;16.66;93.78;101382.88;5116130;28;20487;-35
2021/08/19 07:40:31;;;;;;;30.38;24.20;;;;;;;16.58;94.46;101386.06;5116285;28;19904;-35
2021/08/19 07:42:57;;;;;;;35.83;24.38;;;;;;;16.56;94.74;101388.22;5115511;28;20027;-35
2021/08/19 07:45:26;;;;;;;;;;;;;;;16.65;93.88;101389.41;5116233;27;20027;-36
2021/08/19 07:47:52;;;;;;;29.40;24.58;;;;;;;16.57;94.54;101384.41;5115735;28;19927;-35
2021/08/19 07:50:19;;;;;;;33.05;23.77;;;;;;;16.49;94.20;101382.13;5115133;28;20024;-35
2021/08/19 07:52:44;;;;;;;26.73;23.77;;;;;;;16.56;94.73;101388.22;5115546;28;20462;-35
2021/08/19 07:55:11;;;;;;;31.90;23.65;;;;;;;16.55;95.39;101380.31;5114592;27;20020;-35
2021/08/19 07:57:44;;;;;;;31.58;23.77;;;;;;;16.55;95.09;101383.03;5115829;28;20108;-35
2021/08/19 08:00:10;;;;;;;31.10;24.58;;;;;;;16.59;94.71;101395.91;5115271;28;20069;-35
2021/08/19 08:02:36;;;;;;;;;;;;;;;16.67;93.79;101395.44;5116125;27;20051;-35
2021/08/19 08:05:01;;;;;;;30.60;22.48;;;;;;;16.56;94.29;101388.22;5115408;28;20304;-35
2021/08/19 08:07:28;;;;;;;;;;;;;;;16.66;93.98;101396.53;5116074;28;20039;-35
2021/08/19 08:09:53;;;;;;;29.90;21.52;;;;;;;16.56;93.75;101390.13;5114918;27;20343;-35
2021/08/19 08:12:18;;;;;;;29.27;23.48;;;;;;;16.62;94.01;101400.03;5115266;28;20042;-35
2021/08/19 08:14:44;;;;;;;25.85;21.48;;;;;;;16.63;93.55;101405.22;5114719;28;20015;-35
2021/08/19 08:17:09;;;;;;;;;;;;;;;16.66;93.41;101399.25;5115471;28;20111;-35
2021/08/19 08:19:35;;;;;;;26.97;21.53;;;;;;;16.63;94.33;101402.47;5115591;28;19947;-35
2021/08/19 08:22:00;;;;;;;27.27;21.98;;;;;;;16.65;93.48;101403.06;5114881;28;20253;-35
2021/08/19 08:24:25;;;;;;;25.48;20.35;;;;;;;16.69;92.97;101397.94;5114678;28;20031;-35
2021/08/19 08:26:51;;;;;;;;;;;;;;;16.79;93.14;101408.13;5115173;28;20016;-35
2021/08/19 08:29:19;;;;;;;27.23;20.95;;;;;;;16.67;92.76;101389.16;5114582;28;19961;-36
2021/08/19 08:31:45;;;;;;;23.70;18.75;;;;;;;16.79;92.32;101399.94;5114882;28;20026;-35
2021/08/19 08:34:11;;;;;;;26.90;20.70;;;;;;;16.81;92.48;101408.69;5114945;28;20045;-35
2021/08/19 08:36:36;;;;;;;21.88;18.63;;;;;;;16.77;92.26;101389.28;5114635;28;20044;-35
2021/08/19 08:39:04;;;;;;;23.15;18.70;;;;;;;16.87;91.61;101411.22;5114535;28;20435;-35
2021/08/19 08:41:32;;;;;;;26.92;19.98;;;;;;;16.91;91.98;101406.88;5114721;28;20028;-35
2021/08/19 08:43:57;;;;;;;21.60;17.75;;;;;;;16.83;91.94;101393.69;5114323;28;20450;-35
2021/08/19 08:46:24;;;;;;;22.88;18.40;;;;;;;16.71;91.55;101382.94;5114670;28;20113;-35
2021/08/19 08:48:53;;;;;;;25.75;18.75;;;;;;;16.84;91.61;101406.28;5114194;27;20015;-35
2021/08/19 08:51:20;;;;;;;24.73;18.85;;;;;;;16.89;91.17;101420.00;5114840;28;20024;-35
2021/08/19 08:53:46;;;;;;;26.50;18.45;;;;;;;16.92;91.54;101416.72;5114540;28;20015;-35
2021/08/19 08:56:11;;;;;;;23.75;18.17;;;;;;;16.83;91.40;101406.53;5114202;28;20479;-35
2021/08/19 08:58:36;;;;;;;;;;;;;;;16.98;90.74;101432.09;5114813;28;20122;-35
2021/08/19 09:01:03;;;;;;;21.47;17.53;;;;;;;16.76;90.71;101400.47;5114062;28;19919;-35
2021/08/19 09:03:28;;;;;;;19.58;16.67;;;;;;;16.92;91.02;101435.84;5113984;28;20031;-35
2021/08/19 09:05:54;;;;;;;20.92;17.52;;;;;;;16.96;90.85;101436.97;5113058;28;20027;-35
2021/08/19 09:08:20;;;;;;;;;;;;;;;17.06;90.51;101441.72;5114651;28;20049;-35
2021/08/19 09:10:48;;;;;;;20.67;16.77;;;;;;;16.92;90.27;101435.84;5113860;28;19915;-35
2021/08/19 09:13:16;;;;;;;22.17;17.55;;;;;;;16.97;90.21;101446.00;5114090;28;20027;-35
2021/08/19 09:15:46;;;;;;;19.48;17.23;;;;;;;16.97;90.67;101448.72;5113475;28;20024;-35
2021/08/19 09:18:25;;;;;;;22.23;17.60;;;;;;;16.99;90.33;101441.13;5114417;27;20020;-35
2021/08/19 09:20:51;;;;;;;23.30;18.02;;;;;;;17.05;90.93;101450.19;5112177;28;20115;-35
2021/08/19 09:23:16;;;;;;;22.73;18.42;;;;;;;17.11;90.88;101444.50;5113476;28;20107;-35
2021/08/19 09:25:43;;;;;;;;;;;;;;;17.22;90.67;101446.22;5114943;28;20069;-35
2021/08/19 09:28:18;;;;;;;23.10;18.27;;;;;;;17.08;91.42;101439.56;5113871;28;20357;-36
2021/08/19 09:30:50;;;;;;;20.63;18.07;;;;;;;17.09;90.76;101437.66;5113846;28;20186;-35
2021/08/19 09:33:23;;;;;;;26.50;20.17;;;;;;;17.12;92.24;101448.88;5114164;28;20278;-35
2021/08/19 09:35:49;;;;;;;26.23;20.98;;;;;;;17.11;92.00;101447.22;5114033;28;20464;-35
2021/08/19 09:38:20;;;;;;;29.02;21.10;;;;;;;17.16;92.05;101449.19;5113788;28;20072;-35
2021/08/19 09:41:05;;;;;;;25.05;21.15;;;;;;;17.16;91.22;101458.19;5114089;28;20026;-35
2021/08/19 09:43:40;;;;;;;24.77;20.70;;;;;;;17.02;91.80;101443.31;5113472;28;20023;-35
2021/08/19 09:46:06;;;;;;;24.77;22.08;;;;;;;17.02;91.79;101448.78;5113827;28;20050;-35
2021/08/19 09:48:31;;;;;;;27.63;22.73;;;;;;;17.09;91.25;101446.66;5113183;28;20375;-35
2021/08/19 09:51:11;;;;;;;;;;;;;;;17.23;91.15;101452.53;5114236;28;20023;-35
2021/08/19 09:53:43;;;;;;;26.17;22.40;;;;;;;17.18;92.10;101452.50;5113193;28;20316;-35
2021/08/19 09:56:11;;;;;;;25.90;23.00;;;;;;;17.17;92.82;101454.38;5113682;28;20059;-35
2021/08/19 09:58:37;;;;;;;25.90;23.17;;;;;;;17.17;92.46;101450.81;5113403;28;20028;-35
2021/08/19 10:01:02;;;;;;;25.90;23.08;;;;;;;17.19;92.29;101449.50;5113709;28;20329;-35
2021/08/19 10:03:27;;;;;;;;;;;;;;;17.32;92.31;101442.75;5113707;28;20112;-35
2021/08/19 10:05:54;;;;;;;27.85;24.00;;;;;;;17.13;92.20;101442.34;5113693;28;19903;-35
2021/08/19 10:08:20;;;;;;;25.75;23.05;;;;;;;17.09;92.25;101443.13;5113741;28;20026;-35
2021/08/19 10:10:46;;;;;;;25.25;22.65;;;;;;;17.10;92.33;101445.59;5114086;28;20345;-36
2021/08/19 10:13:12;;;;;;;24.77;22.05;;;;;;;17.02;92.01;101445.22;5114009;28;20028;-35
2021/08/19 10:15:40;;;;;;;21.10;18.83;;;;;;;17.01;91.61;101449.03;5113181;28;20047;-35
2021/08/19 10:18:06;;;;;;;20.88;17.83;;;;;;;16.87;90.72;101432.25;5112233;28;20381;-35
2021/08/19 10:20:41;;;;;;;18.23;15.52;;;;;;;16.94;91.28;101450.09;5117257;28;20038;-35
2021/08/19 10:23:08;;;;;;;19.63;14.65;;;;;;;16.91;90.97;101449.78;5116842;27;20102;-36
2021/08/19 10:25:34;;;;;;;17.35;13.75;;;;;;;16.85;89.75;101437.16;5116865;27;20071;-35
2021/08/19 10:28:14;;;;;;;16.23;14.23;;;;;;;16.95;89.96;101440.81;5116334;28;20136;-35
2021/08/19 10:31:05;;;;;;;16.92;13.38;;;;;;;17.06;89.72;101449.91;5117288;28;20111;-35
2021/08/19 10:33:37;;;;;;;19.50;13.35;;;;;;;17.04;89.59;101432.16;5113075;28;20416;-35
2021/08/19 10:36:28;;;;;;;15.15;13.43;;;;;;;17.26;89.19;101446.53;5117453;28;20019;-35
2021/08/19 10:39:20;;;;;;;19.25;14.00;;;;;;;17.43;89.98;101446.41;5034019;28;20060;-35
2021/08/19 10:41:50;;;;;;;17.27;13.50;;;;;;;17.50;87.96;101442.34;5033834;28;20032;-35
2021/08/19 10:44:16;;;;;;;17.08;13.00;;;;;;;17.66;88.20;101426.84;5033972;28;20038;-35
2021/08/19 10:46:44;;;;;;;16.38;13.25;;;;;;;17.81;87.14;101439.00;5034401;28;20103;-35
2021/08/19 10:49:40;;;;;;;16.13;12.65;;;;;;;17.93;87.63;101436.91;5034094;28;20589;-35
2021/08/19 10:52:08;;;;;;;18.33;13.18;;;;;;;18.08;87.42;101439.69;5034252;28;20022;-35
2021/08/19 10:54:42;;;;;;;17.10;12.23;;;;;;;18.11;85.78;101439.19;5033721;28;20466;-35
2021/08/19 10:57:30;;;;;;;14.50;11.95;;;;;;;18.24;86.24;101426.91;5034098;28;20061;-35
2021/08/19 11:00:06;;;;;;;13.88;12.25;;;;;;;18.28;85.40;101431.56;5033722;28;20045;-36
2021/08/19 11:02:40;;;;;;;16.83;12.67;;;;;;;18.33;85.36;101427.22;5033846;28;20037;-35
2021/08/19 11:05:07;;;;;;;15.50;12.10;;;;;;;18.29;83.50;101426.91;5033462;28;20022;-35
2021/08/19 11:07:54;;;;;;;16.27;11.95;;;;;;;18.40;84.13;101436.00;5034122;28;20065;-35
2021/08/19 11:10:27;;;;;;;15.20;12.25;;;;;;;18.32;82.87;101436.53;5033356;28;20037;-35
2021/08/19 11:13:03;;;;;;;15.90;12.07;;;;;;;18.36;82.68;101435.72;5034043;28;20047;-36
2021/08/19 11:15:29;;;;;;;16.00;12.05;;;;;;;18.31;81.61;101435.69;5053492;28;20036;-35
2021/08/19 11:17:57;;;;;;;12.88;10.23;;;;;;;18.39;81.79;101437.91;5096360;28;20444;-36
2021/08/19 11:20:31;;;;;;;14.15;10.73;;;;;;;18.44;82.55;101434.34;5095675;28;20376;-35
2021/08/19 11:23:11;;;;;;;15.57;9.70;;;;;;;18.50;82.22;101442.34;5095619;28;20376;-35